首页
METAR-TAF:

METAR-TAF

机场 :

錫亞爾科特國際機場

锡亚尔科特, 巴基斯坦

纬度: 32-32N, 经度: 74-22E, 海拔: 255米

当前天气观测

该预报发布于28分钟前的15:00 UTC
静风
温度 25°C
湿度 41%
气压 1012 hPa
能見度: 4000
散云层高于10000英尺

METAR: OPST 081500Z 00000KT 4000 HZ SCT100 25/11 Q1012 NOSIG RH43

时间: 20:28 (15:28 UTC)

预报

该预报发布于5小时和43分钟前的09:45 UTC
预报有效从08日的 12点(UTC)到 09日的 18点(UTC)
风速8节,风向西北
能見度: 5000
少量云层高于4000英尺

TAF: OPST 080945Z 0812/0918 31008KT 5000 FU FEW040 TX31/0910Z TN14/0901Z

超过4000个机场的气象观测和天气预报(METAR&TAF报告)。

可查询的气象台以黄色和红色小点在地图上表示。

将鼠标移到小点上方,可查看气象台名称。

然后点击查看天气观测和预报。

如需切换地图:点击带黑十字的绿色按钮放大地图;点击带横线的绿色按钮缩小地图;或者点击绿色箭头查看邻近地区的地图。


METAR-TAF: